createdAt,value
2022-11-07T00:01:26.097Z,97947.59
2022-11-07T00:06:57.023Z,97938.88
2022-11-07T00:12:25.061Z,97947.66
2022-11-07T00:17:50.079Z,97938.38
2022-11-07T00:23:15.437Z,97946.88
2022-11-07T00:28:43.525Z,97942.44
2022-11-07T00:34:08.095Z,97948.38
2022-11-07T00:39:32.069Z,97959.81
2022-11-07T00:45:00.222Z,97967.31
2022-11-07T00:50:25.104Z,97966.78
2022-11-07T00:55:51.075Z,97968.22
2022-11-07T01:01:24.545Z,97969.50
2022-11-07T01:06:50.073Z,97969.25
2022-11-07T01:12:15.051Z,97956.19
2022-11-07T01:17:43.670Z,97955.94
2022-11-07T01:23:07.095Z,97966.06
2022-11-07T01:28:32.121Z,97966.94
2022-11-07T01:34:01.444Z,97970.91
2022-11-07T01:39:19.064Z,97986.03
2022-11-07T01:45:03.099Z,97999.44
2022-11-07T01:50:30.115Z,97992.94
2022-11-07T01:55:55.139Z,97991.97
2022-11-07T02:01:20.141Z,97987.72
2022-11-07T02:06:56.331Z,97996.31
2022-11-07T02:12:21.113Z,98013.75
2022-11-07T02:17:46.591Z,98019.97
2022-11-07T02:23:16.551Z,98025.28
2022-11-07T02:28:46.097Z,98039.91
2022-11-07T02:34:10.120Z,98049.91
2022-11-07T02:39:35.092Z,98056.22
2022-11-07T02:45:03.108Z,98057.75
2022-11-07T02:50:28.136Z,98051.41
2022-11-07T02:55:52.127Z,98064.94
2022-11-07T03:01:20.219Z,98063.78
2022-11-07T03:06:51.140Z,98058.56
2022-11-07T03:12:16.159Z,98060.09
2022-11-07T03:17:45.121Z,98068.53
2022-11-07T03:23:10.132Z,98089.66
2022-11-07T03:28:35.158Z,98090.38
2022-11-07T03:34:02.137Z,98092.91
2022-11-07T03:39:28.213Z,98097.09
2022-11-07T03:44:53.146Z,98096.13
2022-11-07T03:50:22.155Z,98087.94
2022-11-07T03:55:47.153Z,98091.31
2022-11-07T04:01:13.147Z,98094.69
2022-11-07T04:06:41.153Z,98094.53
2022-11-07T04:12:19.207Z,98089.16
2022-11-07T04:17:44.147Z,98092.28
2022-11-07T04:23:11.167Z,98097.34
2022-11-07T04:28:36.164Z,98101.09
2022-11-07T04:34:00.708Z,98118.13
2022-11-07T04:39:27.200Z,98120.91
2022-11-07T04:44:51.179Z,98124.72
2022-11-07T04:50:18.214Z,98115.31
2022-11-07T04:55:45.176Z,98117.94
2022-11-07T05:01:10.359Z,98108.06
2022-11-07T05:06:34.169Z,98121.06
2022-11-07T05:12:02.218Z,98120.97
2022-11-07T05:17:30.205Z,98120.34
2022-11-07T05:23:07.494Z,98121.34
2022-11-07T05:28:39.530Z,98132.69
2022-11-07T05:34:04.236Z,98142.28
2022-11-07T05:39:28.188Z,98147.63
2022-11-07T05:44:56.217Z,98153.28
2022-11-07T05:50:21.672Z,98157.25
2022-11-07T05:55:46.209Z,98158.25
2022-11-07T06:01:16.191Z,98172.78
2022-11-07T06:06:41.208Z,98177.72
2022-11-07T06:12:05.223Z,98179.03
2022-11-07T06:17:33.296Z,98185.22
2022-11-07T06:22:57.224Z,98177.59
2022-11-07T06:28:24.244Z,98176.91
2022-11-07T06:33:51.201Z,98187.34
2022-11-07T06:39:16.206Z,98186.34
2022-11-07T06:44:40.219Z,98201.44
2022-11-07T06:50:08.247Z,98197.50
2022-11-07T06:55:32.229Z,98209.47
2022-11-07T07:00:57.354Z,98208.88
2022-11-07T07:06:32.277Z,98205.47
2022-11-07T07:11:57.233Z,98214.34
2022-11-07T07:17:21.254Z,98231.38
2022-11-07T07:22:55.444Z,98230.66
2022-11-07T07:28:21.238Z,98238.09
2022-11-07T07:33:46.280Z,98246.41
2022-11-07T07:39:13.257Z,98244.00
2022-11-07T07:44:38.256Z,98245.94
2022-11-07T07:50:02.265Z,98250.97
2022-11-07T07:55:30.237Z,98247.63
2022-11-07T08:00:55.335Z,98259.56
2022-11-07T08:06:26.267Z,98255.25
2022-11-07T08:11:53.505Z,98258.25
2022-11-07T08:17:17.248Z,98261.59
2022-11-07T08:22:42.272Z,98266.44
2022-11-07T08:28:09.262Z,98256.63
2022-11-07T08:33:41.384Z,98252.22
2022-11-07T08:39:06.276Z,98251.06
2022-11-07T08:44:33.387Z,98241.53
2022-11-07T08:49:58.291Z,98230.13
2022-11-07T08:55:23.291Z,98224.31
2022-11-07T09:00:51.355Z,98227.22
2022-11-07T09:06:15.365Z,98230.84
2022-11-07T09:11:40.302Z,98223.81
2022-11-07T09:17:07.303Z,98217.78
2022-11-07T09:22:32.296Z,98212.06
2022-11-07T09:27:58.317Z,98213.09
2022-11-07T09:33:26.289Z,98206.34
2022-11-07T09:38:50.334Z,98209.19
2022-11-07T09:44:36.542Z,98208.69
2022-11-07T09:50:06.429Z,98203.91
2022-11-07T09:55:36.317Z,98198.47
2022-11-07T10:01:00.375Z,98198.09
2022-11-07T10:06:32.445Z,98201.22
2022-11-07T10:12:01.776Z,98187.53
2022-11-07T10:17:33.328Z,98208.13
2022-11-07T10:23:17.798Z,98204.72
2022-11-07T10:28:47.414Z,98208.56
2022-11-07T10:34:18.322Z,98207.03
2022-11-07T10:39:45.351Z,98200.25
2022-11-07T10:45:11.492Z,98198.22
2022-11-07T10:50:36.360Z,98201.94
2022-11-07T10:56:05.383Z,98202.44
2022-11-07T11:01:34.490Z,98209.31
2022-11-07T11:07:13.426Z,98216.72
2022-11-07T11:12:43.393Z,98213.00
2022-11-07T11:18:15.707Z,98211.47
2022-11-07T11:23:44.386Z,98186.59
2022-11-07T11:29:15.393Z,98189.22
2022-11-07T11:34:51.400Z,98188.50
2022-11-07T11:40:28.534Z,98184.22
2022-11-07T11:46:09.382Z,98188.16
2022-11-07T11:51:43.696Z,98187.31
2022-11-07T11:57:13.488Z,98187.47
2022-11-07T12:03:10.496Z,98179.75
2022-11-07T12:08:54.397Z,98189.22
2022-11-07T12:14:52.914Z,98199.31
2022-11-07T12:20:31.445Z,98203.06
2022-11-07T12:26:03.582Z,98215.06
2022-11-07T12:31:39.386Z,98197.41
2022-11-07T12:37:31.512Z,98206.88
2022-11-07T12:43:11.537Z,98194.03
2022-11-07T12:49:05.418Z,98187.16
2022-11-07T12:54:55.606Z,98187.28
2022-11-07T13:00:30.498Z,98186.84
2022-11-07T13:06:05.448Z,98185.75
2022-11-07T13:11:41.498Z,98185.03
2022-11-07T13:17:08.437Z,98186.34
2022-11-07T13:22:42.498Z,98183.72
2022-11-07T13:28:22.470Z,98173.63
2022-11-07T13:33:47.474Z,98166.16
2022-11-07T13:39:15.536Z,98173.94
2022-11-07T13:44:47.465Z,98170.84
2022-11-07T13:50:16.483Z,98162.84
2022-11-07T13:55:51.528Z,98174.69
2022-11-07T14:01:25.553Z,98174.50
2022-11-07T14:06:51.448Z,98171.69
2022-11-07T14:12:15.474Z,98184.34
2022-11-07T14:17:45.489Z,98189.47
2022-11-07T14:23:12.493Z,98182.75
2022-11-07T14:28:44.804Z,98180.59
2022-11-07T14:34:14.448Z,98181.78
2022-11-07T14:39:42.491Z,98194.63
2022-11-07T14:45:11.501Z,98187.91
2022-11-07T14:50:39.526Z,98187.16
2022-11-07T14:56:07.538Z,98181.63
2022-11-07T15:01:38.551Z,98169.66
2022-11-07T15:07:08.784Z,98159.06
2022-11-07T15:12:42.528Z,98168.94
2022-11-07T15:18:10.549Z,98188.34
2022-11-07T15:23:48.509Z,98190.25
2022-11-07T15:29:24.525Z,98211.69
2022-11-07T15:35:29.758Z,98207.81
2022-11-07T15:40:38.525Z,98223.38
2022-11-07T15:46:04.496Z,98225.75
2022-11-07T15:51:31.510Z,98230.19
2022-11-07T15:57:05.568Z,98229.69
2022-11-07T16:02:30.632Z,98237.63
2022-11-07T16:08:03.606Z,98234.59
2022-11-07T16:13:31.558Z,98245.41
2022-11-07T16:18:59.538Z,98247.06
2022-11-07T16:24:25.512Z,98243.75
2022-11-07T16:29:53.565Z,98243.41
2022-11-07T16:35:19.547Z,98244.72
2022-11-07T16:40:43.549Z,98246.59
2022-11-07T16:46:11.767Z,98248.81
2022-11-07T16:51:39.567Z,98253.84
2022-11-07T16:57:04.527Z,98260.25
2022-11-07T17:02:36.646Z,98260.91
2022-11-07T17:08:07.557Z,98265.66
2022-11-07T17:13:32.567Z,98260.75
2022-11-07T17:18:59.871Z,98255.19
2022-11-07T17:24:24.563Z,98240.53
2022-11-07T17:29:48.570Z,98226.91
2022-11-07T17:35:31.629Z,98224.38
2022-11-07T17:40:56.577Z,98222.16
2022-11-07T17:46:23.573Z,98212.75
2022-11-07T17:51:51.597Z,98222.00
2022-11-07T17:57:18.587Z,98223.84
2022-11-07T18:02:42.673Z,98221.66
2022-11-07T18:08:31.195Z,98224.88
2022-11-07T18:14:03.732Z,98232.94
2022-11-07T18:19:27.579Z,98233.06
2022-11-07T18:24:55.595Z,98238.56
2022-11-07T18:30:20.681Z,98237.19
2022-11-07T18:35:45.596Z,98244.56
2022-11-07T18:41:17.599Z,98241.53
2022-11-07T18:46:42.608Z,98242.66
2022-11-07T18:52:06.609Z,98247.91
2022-11-07T18:57:34.634Z,98234.94
2022-11-07T19:02:58.637Z,98242.16
2022-11-07T19:08:29.616Z,98247.53
2022-11-07T19:13:57.618Z,98255.59
2022-11-07T19:19:21.642Z,98252.41
2022-11-07T19:24:46.761Z,98253.78
2022-11-07T19:30:14.709Z,98271.13
2022-11-07T19:35:39.652Z,98257.50
2022-11-07T19:41:04.620Z,98263.72
2022-11-07T19:46:32.690Z,98269.44
2022-11-07T19:51:58.649Z,98277.81
2022-11-07T19:57:23.643Z,98279.84
2022-11-07T20:02:50.673Z,98276.44
2022-11-07T20:08:22.677Z,98279.13
2022-11-07T20:13:47.646Z,98286.06
2022-11-07T20:19:17.641Z,98284.53
2022-11-07T20:24:42.652Z,98289.22
2022-11-07T20:30:06.678Z,98295.63
2022-11-07T20:35:34.661Z,98300.31
2022-11-07T20:40:58.661Z,98300.31
2022-11-07T20:46:24.676Z,98302.16
2022-11-07T20:51:51.681Z,98297.63
2022-11-07T20:57:16.658Z,98300.47
2022-11-07T21:02:40.670Z,98298.25
2022-11-07T21:08:08.743Z,98308.72
2022-11-07T21:13:33.695Z,98309.72
2022-11-07T21:18:58.725Z,98314.91
2022-11-07T21:24:25.756Z,98314.09
2022-11-07T21:29:50.672Z,98318.47
2022-11-07T21:35:15.683Z,98310.75
2022-11-07T21:40:43.710Z,98313.13
2022-11-07T21:46:07.728Z,98317.69
2022-11-07T21:51:34.684Z,98312.13
2022-11-07T21:57:02.714Z,98307.06
2022-11-07T22:02:27.882Z,98315.78
2022-11-07T22:07:52.692Z,98309.38
2022-11-07T22:13:20.753Z,98314.66
2022-11-07T22:18:45.719Z,98310.25
2022-11-07T22:24:10.704Z,98328.34
2022-11-07T22:29:37.740Z,98330.63
2022-11-07T22:35:08.802Z,98322.03
2022-11-07T22:40:32.724Z,98309.94
2022-11-07T22:46:00.753Z,98304.88
2022-11-07T22:51:26.756Z,98305.34
2022-11-07T22:56:51.718Z,98300.97
2022-11-07T23:02:18.859Z,98305.00
2022-11-07T23:07:43.722Z,98306.69
2022-11-07T23:13:11.767Z,98302.19
2022-11-07T23:18:40.801Z,98305.63
2022-11-07T23:24:08.744Z,98298.13
2022-11-07T23:29:33.775Z,98299.59
2022-11-07T23:35:01.739Z,98304.13
2022-11-07T23:40:26.787Z,98290.00
2022-11-07T23:46:03.768Z,98290.31
2022-11-07T23:51:31.757Z,98303.59
2022-11-07T23:56:56.784Z,98295.53
